Time;durP1;ratioP1;P1;durP2;ratioP2;P2;SDS_P1;SDS_P2;PMS_P1;PMS_P2;Temp;Humidity;BMP_temperature;BMP_pressure;BME280_temperature;BME280_humidity;BME280_pressure;Samples;Min_cycle;Max_cycle;Signal;HPM_P1;HPM_P2
2023/05/30 00:00:50;;;;;;;0.77;0.77;;;12.80;99.90;;;;;;5005717;28;20038;-67
2023/05/30 00:03:18;;;;;;;0.10;0.10;;;12.70;99.90;;;;;;5007849;28;20054;-67
2023/05/30 00:05:43;;;;;;;0.00;0.00;;;12.70;99.90;;;;;;5002991;28;20037;-67
2023/05/30 00:08:09;;;;;;;0.20;0.20;;;12.60;99.90;;;;;;5002315;28;20050;-69
2023/05/30 00:10:34;;;;;;;1.20;1.13;;;12.70;99.90;;;;;;5032552;28;20044;-68
2023/05/30 00:13:00;;;;;;;1.02;0.68;;;12.60;99.90;;;;;;5004236;28;20048;-68
2023/05/30 00:15:26;;;;;;;0.00;0.00;;;12.60;99.90;;;;;;5007836;28;20107;-68
2023/05/30 00:17:52;;;;;;;0.50;0.50;;;12.60;99.90;;;;;;5000513;28;20046;-68
2023/05/30 00:20:19;;;;;;;0.10;0.10;;;12.70;99.90;;;;;;5004411;28;20058;-68
2023/05/30 00:22:45;;;;;;;0.10;0.10;;;12.70;99.90;;;;;;5006331;28;20050;-68
2023/05/30 00:25:11;;;;;;;0.00;0.00;;;12.60;99.90;;;;;;5003637;28;20056;-68
2023/05/30 00:27:37;;;;;;;0.08;0.08;;;12.70;99.90;;;;;;5007569;28;20042;-68
2023/05/30 00:30:03;;;;;;;0.00;0.00;;;12.70;99.90;;;;;;5002390;28;20038;-68
2023/05/30 00:32:28;;;;;;;0.00;0.00;;;12.70;99.90;;;;;;5004908;28;20042;-69
2023/05/30 00:34:54;;;;;;;0.10;0.10;;;12.60;99.90;;;;;;5012670;28;20033;-68
2023/05/30 00:37:19;;;;;;;0.55;0.55;;;12.50;99.90;;;;;;5008662;28;20048;-68
2023/05/30 00:39:46;;;;;;;0.65;0.45;;;12.50;99.90;;;;;;5000232;28;20049;-68
2023/05/30 00:42:11;;;;;;;0.82;0.82;;;12.50;99.90;;;;;;5006506;28;20042;-68
2023/05/30 00:44:37;;;;;;;0.00;0.00;;;12.50;99.90;;;;;;5010936;28;20401;-68
2023/05/30 00:47:03;;;;;;;0.30;0.30;;;12.60;99.90;;;;;;5003484;28;20042;-68
2023/05/30 00:49:29;;;;;;;0.08;0.08;;;12.50;99.90;;;;;;4999370;28;20050;-68
2023/05/30 00:51:55;;;;;;;0.00;0.00;;;12.50;99.90;;;;;;5002404;28;20038;-68
2023/05/30 00:54:22;;;;;;;0.05;0.05;;;12.50;99.90;;;;;;5004498;28;20073;-68
2023/05/30 00:56:48;;;;;;;0.00;0.00;;;12.50;99.90;;;;;;5002831;28;20041;-68
2023/05/30 00:59:13;;;;;;;0.00;0.00;;;12.50;99.90;;;;;;4997747;28;20048;-68
2023/05/30 01:01:42;;;;;;;0.10;0.10;;;12.50;99.90;;;;;;4998134;28;20042;-68
2023/05/30 01:04:08;;;;;;;0.40;0.40;;;12.60;99.90;;;;;;5006967;28;20593;-68
2023/05/30 01:06:37;;;;;;;0.10;0.10;;;12.50;99.90;;;;;;5009553;28;20089;-68
2023/05/30 01:09:04;;;;;;;1.65;1.42;;;12.50;99.90;;;;;;5002118;28;20505;-68
2023/05/30 01:12:01;;;;;;;0.30;0.30;;;12.50;99.90;;;;;;4996936;28;20046;-68
2023/05/30 01:14:49;;;;;;;0.10;0.10;;;12.50;99.90;;;;;;5021348;28;20045;-68
2023/05/30 01:17:17;;;;;;;5.10;0.93;;;12.50;99.90;;;;;;5006485;28;20042;-69
2023/05/30 01:20:07;;;;;;;0.52;0.43;;;12.50;99.90;;;;;;5005467;28;20056;-68
2023/05/30 01:22:54;;;;;;;3.60;1.10;;;12.50;99.90;;;;;;5006777;28;20050;-68
2023/05/30 01:25:35;;;;;;;0.17;0.17;;;12.50;99.90;;;;;;5023534;28;20431;-68
2023/05/30 01:28:13;;;;;;;0.17;0.17;;;12.60;99.90;;;;;;4999186;28;20141;-69
2023/05/30 01:30:46;;;;;;;1.00;0.90;;;12.50;99.90;;;;;;5026340;28;20400;-69
2023/05/30 01:33:13;;;;;;;0.00;0.00;;;12.50;99.90;;;;;;5001399;28;20034;-68
2023/05/30 01:35:43;;;;;;;0.10;0.10;;;12.60;99.90;;;;;;5000559;28;20074;-68
2023/05/30 01:38:08;;;;;;;0.00;0.00;;;12.60;99.90;;;;;;5011570;28;20124;-68
2023/05/30 01:40:35;;;;;;;0.10;0.10;;;12.60;99.90;;;;;;4997637;28;20462;-68
2023/05/30 01:43:03;;;;;;;0.00;0.00;;;12.60;99.90;;;;;;5001090;28;20047;-68
2023/05/30 01:45:35;;;;;;;0.10;0.10;;;12.60;99.90;;;;;;4999307;28;20034;-68
2023/05/30 01:48:11;;;;;;;0.15;0.15;;;12.60;99.90;;;;;;4999269;28;20390;-68
2023/05/30 01:50:44;;;;;;;0.00;0.00;;;12.50;99.90;;;;;;5006426;28;20049;-68
2023/05/30 01:53:15;;;;;;;0.10;0.10;;;12.60;99.90;;;;;;5004998;28;20042;-68
2023/05/30 01:55:43;;;;;;;0.00;0.00;;;12.50;99.90;;;;;;4999213;28;20508;-68
2023/05/30 01:58:08;;;;;;;0.00;0.00;;;12.60;99.90;;;;;;5000257;28;20140;-68
2023/05/30 02:00:35;;;;;;;2.63;1.65;;;12.60;99.90;;;;;;5005984;28;20453;-68
2023/05/30 02:03:01;;;;;;;0.00;0.00;;;12.60;99.90;;;;;;5008626;28;20050;-68
2023/05/30 02:05:26;;;;;;;0.10;0.10;;;12.50;99.90;;;;;;5005723;28;20484;-68
2023/05/30 02:07:52;;;;;;;0.75;0.73;;;12.60;99.90;;;;;;5006819;28;20068;-68
2023/05/30 02:10:17;;;;;;;0.10;0.10;;;12.60;99.90;;;;;;4999008;28;20076;-68
2023/05/30 02:12:43;;;;;;;0.00;0.00;;;12.60;99.90;;;;;;5003555;28;20076;-69
2023/05/30 02:15:09;;;;;;;0.82;0.82;;;12.60;99.90;;;;;;5000727;28;20088;-68
2023/05/30 02:17:35;;;;;;;0.00;0.00;;;12.50;99.90;;;;;;5005453;28;20048;-68
2023/05/30 02:20:01;;;;;;;0.10;0.10;;;12.50;99.90;;;;;;4998955;28;20046;-68
2023/05/30 02:22:26;;;;;;;0.08;0.08;;;12.50;99.90;;;;;;5006223;28;20042;-68
2023/05/30 02:24:55;;;;;;;0.22;0.22;;;12.50;99.90;;;;;;5003944;28;20551;-68
2023/05/30 02:27:20;;;;;;;0.28;0.28;;;12.60;99.90;;;;;;4997861;28;20064;-68
2023/05/30 02:29:46;;;;;;;0.40;0.40;;;12.50;99.90;;;;;;5008783;28;20565;-68
2023/05/30 02:32:11;;;;;;;0.17;0.17;;;12.50;99.90;;;;;;5001883;28;20054;-68
2023/05/30 02:34:37;;;;;;;0.52;0.30;;;12.50;99.90;;;;;;5004521;28;20054;-68
2023/05/30 02:37:03;;;;;;;1.27;0.90;;;12.50;99.90;;;;;;5000626;28;20052;-68
2023/05/30 02:39:28;;;;;;;1.02;0.55;;;12.60;99.90;;;;;;5005554;28;20065;-68
2023/05/30 02:41:54;;;;;;;0.95;0.63;;;12.60;99.90;;;;;;5000052;28;20089;-69
2023/05/30 02:44:19;;;;;;;0.30;0.30;;;12.60;99.90;;;;;;4999702;28;20046;-68
2023/05/30 02:46:45;;;;;;;0.57;0.57;;;12.60;99.90;;;;;;5006300;28;20038;-68
2023/05/30 02:49:11;;;;;;;0.00;0.00;;;12.60;99.90;;;;;;5009352;28;20548;-68
2023/05/30 02:51:36;;;;;;;0.17;0.17;;;12.60;99.90;;;;;;5000960;28;20486;-69
2023/05/30 02:54:02;;;;;;;0.10;0.10;;;12.60;99.90;;;;;;5005427;28;20046;-68
2023/05/30 02:56:28;;;;;;;0.57;0.55;;;12.60;99.90;;;;;;5022430;28;20124;-68
2023/05/30 02:58:58;;;;;;;0.28;0.28;;;12.60;99.90;;;;;;5005220;28;20107;-69
2023/05/30 03:01:23;;;;;;;0.05;0.05;;;12.50;99.90;;;;;;5000580;28;20046;-68
2023/05/30 03:03:49;;;;;;;0.10;0.10;;;12.60;99.90;;;;;;5009411;28;20108;-68
2023/05/30 03:06:15;;;;;;;0.00;0.00;;;12.50;99.90;;;;;;4999262;28;20402;-68
2023/05/30 03:08:42;;;;;;;0.00;0.00;;;12.50;99.90;;;;;;4999557;28;20128;-68
2023/05/30 03:11:08;;;;;;;0.20;0.20;;;12.50;99.90;;;;;;5003364;28;20049;-68
2023/05/30 03:13:34;;;;;;;0.13;0.13;;;12.50;99.90;;;;;;4998463;28;20039;-68
2023/05/30 03:15:59;;;;;;;1.33;1.23;;;12.60;99.90;;;;;;4994743;28;20116;-68
2023/05/30 03:18:25;;;;;;;0.28;0.28;;;12.60;99.90;;;;;;5000922;28;20062;-68
2023/05/30 03:20:50;;;;;;;0.75;0.75;;;12.60;99.90;;;;;;4995463;28;20042;-68
2023/05/30 03:23:16;;;;;;;0.10;0.10;;;12.60;99.90;;;;;;5003393;28;20038;-68
2023/05/30 03:25:42;;;;;;;0.10;0.10;;;12.60;99.90;;;;;;4995725;28;20045;-68
2023/05/30 03:28:07;;;;;;;0.00;0.00;;;12.50;99.90;;;;;;4997680;28;20533;-68
2023/05/30 03:30:33;;;;;;;5.82;1.30;;;12.60;99.90;;;;;;4999214;28;20050;-68
2023/05/30 03:32:59;;;;;;;0.00;0.00;;;12.60;99.90;;;;;;5010548;28;20053;-68
2023/05/30 03:35:25;;;;;;;0.40;0.40;;;12.60;99.90;;;;;;5020275;28;20050;-68
2023/05/30 03:37:50;;;;;;;0.00;0.00;;;12.50;99.90;;;;;;5005444;28;20514;-68
2023/05/30 03:40:16;;;;;;;0.45;0.45;;;12.60;99.90;;;;;;5000755;28;20512;-69
2023/05/30 03:42:42;;;;;;;0.00;0.00;;;12.60;99.90;;;;;;5000497;28;20500;-68
2023/05/30 03:45:07;;;;;;;0.47;0.47;;;12.60;99.90;;;;;;5012676;28;20046;-68
2023/05/30 03:47:33;;;;;;;0.10;0.10;;;12.50;99.90;;;;;;5003405;28;20145;-68
2023/05/30 03:50:00;;;;;;;0.10;0.10;;;12.60;99.90;;;;;;5008755;28;20474;-68
2023/05/30 03:52:25;;;;;;;1.33;0.60;;;12.60;99.90;;;;;;5006901;28;20511;-68
2023/05/30 03:54:51;;;;;;;0.20;0.20;;;12.60;99.90;;;;;;5005973;28;20490;-68
2023/05/30 03:57:17;;;;;;;0.10;0.10;;;12.60;99.90;;;;;;5002224;28;20121;-68
2023/05/30 03:59:42;;;;;;;0.00;0.00;;;12.60;99.90;;;;;;5011920;28;20046;-68
2023/05/30 04:02:08;;;;;;;0.10;0.10;;;12.60;99.90;;;;;;5029128;28;20133;-68
2023/05/30 04:04:33;;;;;;;0.30;0.30;;;12.60;99.90;;;;;;5004838;28;20053;-68
2023/05/30 04:07:00;;;;;;;3.00;1.65;;;12.60;99.90;;;;;;5006955;28;20058;-68
2023/05/30 04:09:25;;;;;;;0.32;0.32;;;12.70;99.90;;;;;;5009516;28;20045;-68
2023/05/30 04:11:52;;;;;;;0.20;0.20;;;12.70;99.90;;;;;;5012104;28;20042;-68
2023/05/30 04:14:17;;;;;;;0.25;0.25;;;12.70;99.90;;;;;;5002898;28;20046;-68
2023/05/30 04:16:43;;;;;;;0.10;0.10;;;12.70;99.90;;;;;;5011107;28;20117;-67
2023/05/30 04:19:09;;;;;;;0.00;0.00;;;12.70;99.90;;;;;;5009828;28;20056;-68
2023/05/30 04:21:34;;;;;;;0.55;0.55;;;12.70;99.90;;;;;;5007751;28;20046;-68
2023/05/30 04:24:00;;;;;;;0.00;0.00;;;12.70;99.90;;;;;;5003319;28;20054;-68
2023/05/30 04:26:25;;;;;;;0.10;0.10;;;12.70;99.90;;;;;;5010985;28;20041;-68
2023/05/30 04:28:56;;;;;;;0.05;0.05;;;12.70;99.90;;;;;;5010531;28;20518;-68
2023/05/30 04:31:25;;;;;;;3.33;1.17;;;12.70;99.90;;;;;;5006051;28;20045;-68
2023/05/30 04:33:52;;;;;;;0.00;0.00;;;12.70;99.90;;;;;;5009152;28;20507;-68
2023/05/30 04:36:20;;;;;;;1.00;0.90;;;12.70;99.90;;;;;;5023576;28;20045;-68
2023/05/30 04:38:48;;;;;;;0.10;0.10;;;12.70;99.90;;;;;;5003405;28;20101;-69
2023/05/30 04:41:20;;;;;;;0.00;0.00;;;12.70;99.90;;;;;;5010179;28;20103;-68
2023/05/30 04:43:48;;;;;;;0.00;0.00;;;12.70;99.90;;;;;;5008073;28;20044;-68
2023/05/30 04:46:21;;;;;;;0.35;0.35;;;12.70;99.90;;;;;;4998641;28;20125;-68
2023/05/30 04:48:48;;;;;;;0.20;0.20;;;12.70;99.90;;;;;;5014565;28;20491;-68
2023/05/30 04:51:14;;;;;;;0.00;0.00;;;12.70;99.90;;;;;;5008022;28;20060;-68
2023/05/30 04:53:40;;;;;;;0.52;0.52;;;12.70;99.90;;;;;;5006042;28;20038;-68
2023/05/30 04:56:06;;;;;;;0.88;0.80;;;12.70;99.90;;;;;;5010293;28;20125;-68
2023/05/30 04:58:32;;;;;;;0.00;0.00;;;12.70;99.90;;;;;;5002681;28;20049;-68
2023/05/30 05:00:58;;;;;;;0.10;0.10;;;12.70;99.90;;;;;;5006386;28;20038;-68
2023/05/30 05:03:24;;;;;;;0.00;0.00;;;12.70;99.90;;;;;;5002017;28;20045;-68
2023/05/30 05:05:50;;;;;;;0.10;0.10;;;12.70;99.90;;;;;;5003751;28;20477;-68
2023/05/30 05:08:16;;;;;;;0.10;0.10;;;12.70;99.90;;;;;;5010073;28;20100;-68
2023/05/30 05:10:41;;;;;;;0.10;0.10;;;12.80;99.90;;;;;;5011293;28;20120;-68
2023/05/30 05:13:07;;;;;;;0.77;0.45;;;12.70;99.90;;;;;;5007433;28;20040;-68
2023/05/30 05:15:32;;;;;;;0.65;0.65;;;12.80;99.90;;;;;;5004544;28;20466;-68
2023/05/30 05:17:58;;;;;;;0.15;0.15;;;12.80;99.90;;;;;;5003323;28;20038;-68
2023/05/30 05:20:24;;;;;;;0.10;0.10;;;12.80;99.90;;;;;;5005655;28;20089;-67
2023/05/30 05:22:50;;;;;;;1.13;0.98;;;12.80;99.90;;;;;;5002560;28;20030;-68
2023/05/30 05:25:16;;;;;;;1.60;1.50;;;12.80;99.90;;;;;;5011619;28;20107;-68
2023/05/30 05:27:42;;;;;;;0.10;0.10;;;12.80;99.90;;;;;;5040232;28;20042;-68
2023/05/30 05:30:08;;;;;;;1.48;1.15;;;12.80;99.90;;;;;;5001035;28;20409;-67
2023/05/30 05:32:36;;;;;;;0.00;0.00;;;12.80;99.90;;;;;;5000754;28;20073;-68
2023/05/30 05:35:02;;;;;;;0.00;0.00;;;12.80;99.90;;;;;;5005699;28;20046;-68
2023/05/30 05:37:28;;;;;;;1.85;1.58;;;12.80;99.90;;;;;;5005122;28;20053;-68
2023/05/30 05:39:53;;;;;;;0.28;0.28;;;12.80;99.90;;;;;;5009721;28;20060;-68
2023/05/30 05:42:19;;;;;;;0.25;0.25;;;12.80;99.90;;;;;;5006257;28;20035;-68
2023/05/30 05:44:44;;;;;;;0.38;0.38;;;12.80;99.90;;;;;;5000568;28;20041;-68
2023/05/30 05:47:10;;;;;;;0.80;0.80;;;12.80;99.90;;;;;;5005921;28;20363;-68
2023/05/30 05:49:36;;;;;;;0.10;0.10;;;12.80;99.90;;;;;;5001990;28;20061;-68
2023/05/30 05:52:01;;;;;;;0.22;0.22;;;12.80;99.90;;;;;;5005353;28;20387;-68
2023/05/30 05:54:27;;;;;;;0.10;0.10;;;12.80;99.90;;;;;;4994966;28;20305;-67
2023/05/30 05:56:53;;;;;;;0.00;0.00;;;12.90;99.90;;;;;;4998936;28;20065;-67
2023/05/30 05:59:18;;;;;;;0.15;0.15;;;12.80;99.90;;;;;;5009854;28;20539;-67
2023/05/30 06:01:44;;;;;;;0.00;0.00;;;12.90;99.90;;;;;;5002801;28;20045;-67
2023/05/30 06:04:11;;;;;;;1.75;1.65;;;12.80;99.90;;;;;;5006596;28;20053;-67
2023/05/30 06:06:37;;;;;;;0.00;0.00;;;12.90;99.90;;;;;;5001101;28;20046;-67
2023/05/30 06:09:03;;;;;;;0.15;0.15;;;12.90;99.90;;;;;;5008822;28;20072;-68
2023/05/30 06:11:29;;;;;;;0.00;0.00;;;12.90;99.90;;;;;;5005062;28;20034;-68
2023/05/30 06:13:55;;;;;;;0.00;0.00;;;12.90;99.90;;;;;;5008339;28;20539;-67
2023/05/30 06:16:20;;;;;;;0.00;0.00;;;12.90;99.90;;;;;;4998206;28;20390;-68
2023/05/30 06:18:46;;;;;;;0.25;0.25;;;12.90;99.90;;;;;;5005075;28;20080;-68
2023/05/30 06:21:12;;;;;;;0.43;0.43;;;12.90;99.90;;;;;;5005691;28;20034;-67
2023/05/30 06:23:37;;;;;;;0.00;0.00;;;12.90;99.90;;;;;;5002126;28;20061;-68
2023/05/30 06:26:03;;;;;;;0.22;0.15;;;12.90;99.90;;;;;;4998944;28;20132;-68
2023/05/30 06:28:29;;;;;;;0.25;0.25;;;12.90;99.90;;;;;;5002072;28;20532;-67
2023/05/30 06:30:54;;;;;;;0.20;0.20;;;12.90;99.90;;;;;;5005387;28;20516;-67
2023/05/30 06:33:20;;;;;;;0.00;0.00;;;12.90;99.90;;;;;;5004766;28;20038;-67
2023/05/30 06:35:46;;;;;;;0.00;0.00;;;13.00;99.90;;;;;;4999169;28;20042;-67
2023/05/30 06:38:12;;;;;;;0.20;0.20;;;13.00;99.90;;;;;;5004523;28;20040;-68
2023/05/30 06:40:38;;;;;;;0.10;0.10;;;13.00;99.90;;;;;;4998896;28;20050;-68
2023/05/30 06:43:03;;;;;;;0.00;0.00;;;13.00;99.90;;;;;;5009909;28;20038;-67
2023/05/30 06:45:29;;;;;;;0.10;0.10;;;13.00;99.90;;;;;;5004752;28;20573;-67
2023/05/30 06:47:55;;;;;;;0.10;0.10;;;13.00;99.90;;;;;;5006522;28;20037;-67
2023/05/30 06:50:20;;;;;;;0.30;0.30;;;13.00;99.90;;;;;;4998592;28;20045;-68
2023/05/30 06:52:46;;;;;;;0.20;0.20;;;13.00;99.90;;;;;;5005126;28;20037;-67
2023/05/30 06:55:13;;;;;;;0.47;0.30;;;12.90;99.90;;;;;;4996678;28;20049;-68
2023/05/30 06:57:39;;;;;;;0.00;0.00;;;13.00;99.90;;;;;;4998861;28;20076;-68
2023/05/30 07:00:08;;;;;;;0.00;0.00;;;13.00;99.90;;;;;;5006850;28;20053;-68
2023/05/30 07:02:34;;;;;;;0.00;0.00;;;13.00;99.90;;;;;;5003038;28;20445;-68
2023/05/30 07:05:00;;;;;;;0.10;0.10;;;13.10;99.90;;;;;;5004786;28;20080;-68
2023/05/30 07:07:25;;;;;;;0.00;0.00;;;13.10;99.90;;;;;;5007106;28;20502;-68
2023/05/30 07:09:51;;;;;;;0.00;0.00;;;13.10;99.90;;;;;;5002987;28;20374;-68
2023/05/30 07:12:16;;;;;;;0.08;0.08;;;13.20;99.90;;;;;;5002833;28;20042;-68
2023/05/30 07:14:42;;;;;;;0.00;0.00;;;13.20;99.90;;;;;;4994883;28;20153;-67
2023/05/30 07:17:07;;;;;;;0.22;0.22;;;13.20;99.90;;;;;;5004615;28;20042;-67
2023/05/30 07:19:33;;;;;;;0.08;0.08;;;13.20;99.90;;;;;;5033030;28;20046;-68
2023/05/30 07:21:59;;;;;;;0.47;0.47;;;13.20;99.90;;;;;;5002981;28;20879;-67
2023/05/30 07:24:24;;;;;;;0.40;0.40;;;13.20;99.90;;;;;;5002109;28;20371;-67
2023/05/30 07:26:50;;;;;;;0.10;0.10;;;13.20;99.90;;;;;;5002031;28;20112;-67
2023/05/30 07:29:16;;;;;;;0.00;0.00;;;13.20;99.90;;;;;;5004863;28;20057;-68
2023/05/30 07:31:41;;;;;;;0.00;0.00;;;13.20;99.90;;;;;;5002828;28;20061;-67
2023/05/30 07:34:07;;;;;;;0.20;0.20;;;13.20;99.90;;;;;;5004580;28;20045;-67
2023/05/30 07:36:33;;;;;;;0.08;0.08;;;13.20;99.90;;;;;;5005859;28;20073;-68
2023/05/30 07:38:58;;;;;;;0.40;0.40;;;13.20;99.90;;;;;;5004624;28;20133;-68
2023/05/30 07:41:24;;;;;;;0.20;0.20;;;13.20;99.90;;;;;;5000180;28;20041;-68
2023/05/30 07:43:50;;;;;;;0.00;0.00;;;13.20;99.90;;;;;;5033542;28;20052;-68
2023/05/30 07:46:15;;;;;;;0.10;0.10;;;13.20;99.90;;;;;;5005957;28;20045;-67
2023/05/30 07:48:41;;;;;;;0.00;0.00;;;13.30;99.90;;;;;;5003553;28;20065;-67
2023/05/30 07:51:08;;;;;;;0.00;0.00;;;13.30;99.90;;;;;;5004927;28;20047;-67
2023/05/30 07:53:34;;;;;;;0.00;0.00;;;13.40;99.90;;;;;;5001613;28;20045;-67
2023/05/30 07:56:00;;;;;;;0.10;0.10;;;13.50;99.90;;;;;;4999099;28;20041;-67
2023/05/30 07:58:25;;;;;;;0.00;0.00;;;13.50;99.90;;;;;;5023017;28;20508;-67
2023/05/30 08:00:51;;;;;;;11.00;1.38;;;13.50;99.90;;;;;;5003526;28;20045;-67
2023/05/30 08:03:16;;;;;;;0.10;0.10;;;13.40;99.90;;;;;;5004476;28;20046;-67
2023/05/30 08:05:42;;;;;;;0.00;0.00;;;13.40;99.90;;;;;;5017065;28;20037;-67
2023/05/30 08:08:08;;;;;;;0.00;0.00;;;13.40;99.90;;;;;;5012993;28;20053;-67
2023/05/30 08:10:34;;;;;;;0.10;0.10;;;13.30;99.90;;;;;;4999670;28;20440;-67
2023/05/30 08:13:00;;;;;;;0.00;0.00;;;13.30;99.90;;;;;;5004784;28;20055;-67
2023/05/30 08:15:27;;;;;;;0.00;0.00;;;13.30;99.90;;;;;;5010276;28;20080;-68
2023/05/30 08:17:53;;;;;;;0.00;0.00;;;13.40;99.90;;;;;;5002275;28;20042;-68
2023/05/30 08:20:18;;;;;;;0.00;0.00;;;13.50;99.90;;;;;;5006473;28;20092;-68
2023/05/30 08:22:44;;;;;;;0.00;0.00;;;13.60;99.90;;;;;;5011818;28;20037;-68
2023/05/30 08:25:10;;;;;;;0.00;0.00;;;13.70;99.90;;;;;;5012046;28;20481;-68
2023/05/30 08:27:37;;;;;;;0.00;0.00;;;13.80;99.90;;;;;;5002474;28;20038;-67
2023/05/30 08:30:04;;;;;;;0.05;0.05;;;13.80;99.90;;;;;;5012338;28;20057;-68
2023/05/30 08:32:30;;;;;;;0.10;0.10;;;13.80;99.90;;;;;;5004219;28;20406;-69
2023/05/30 08:34:56;;;;;;;0.00;0.00;;;13.80;99.90;;;;;;4996437;28;20041;-68
2023/05/30 08:37:21;;;;;;;0.10;0.10;;;13.90;99.90;;;;;;5024951;28;20541;-67
2023/05/30 08:39:47;;;;;;;0.00;0.00;;;14.00;99.90;;;;;;5008329;28;20046;-68
2023/05/30 08:42:13;;;;;;;0.00;0.00;;;14.00;99.90;;;;;;5005363;28;20046;-68
2023/05/30 08:44:39;;;;;;;0.00;0.00;;;14.00;99.90;;;;;;5013290;28;20037;-68
2023/05/30 08:47:12;;;;;;;0.00;0.00;;;13.90;99.90;;;;;;5020762;28;20053;-68
2023/05/30 08:49:41;;;;;;;0.00;0.00;;;13.80;99.90;;;;;;5010281;28;20116;-68
2023/05/30 08:52:11;;;;;;;0.10;0.10;;;13.70;99.90;;;;;;5004967;28;20056;-68
2023/05/30 08:54:41;;;;;;;0.00;0.00;;;13.60;99.90;;;;;;5005871;28;20053;-68
2023/05/30 08:57:22;;;;;;;0.00;0.00;;;13.60;99.90;;;;;;4999677;28;20085;-68
2023/05/30 08:59:49;;;;;;;0.05;0.05;;;13.60;99.90;;;;;;5001653;28;20140;-68
2023/05/30 09:02:18;;;;;;;0.10;0.10;;;13.70;99.90;;;;;;5000085;28;20116;-68
2023/05/30 09:04:43;;;;;;;0.75;0.75;;;13.70;99.90;;;;;;5001806;28;20109;-68
2023/05/30 09:07:10;;;;;;;0.00;0.00;;;13.80;99.90;;;;;;4995809;28;20642;-68
2023/05/30 09:09:35;;;;;;;0.00;0.00;;;13.90;99.90;;;;;;5008189;28;20048;-68
2023/05/30 09:12:02;;;;;;;0.10;0.10;;;13.90;99.90;;;;;;5003546;28;20050;-68
2023/05/30 09:14:28;;;;;;;0.00;0.00;;;14.10;99.90;;;;;;4998381;28;20133;-68
2023/05/30 09:16:54;;;;;;;0.10;0.10;;;14.30;99.90;;;;;;4997838;28;20522;-68
2023/05/30 09:19:20;;;;;;;0.00;0.00;;;14.30;99.90;;;;;;5001146;28;20058;-68
2023/05/30 09:21:46;;;;;;;0.00;0.00;;;14.20;99.90;;;;;;5015047;28;20042;-67
2023/05/30 09:24:11;;;;;;;0.22;0.20;;;14.10;99.90;;;;;;5017139;28;20050;-66
2023/05/30 09:26:37;;;;;;;0.00;0.00;;;14.00;99.90;;;;;;5013948;28;20037;-67
2023/05/30 09:29:10;;;;;;;0.10;0.10;;;13.90;99.90;;;;;;5013660;28;20505;-67
2023/05/30 09:31:37;;;;;;;0.13;0.13;;;13.90;99.90;;;;;;5012250;28;20152;-67
2023/05/30 09:34:04;;;;;;;0.00;0.00;;;13.90;99.90;;;;;;4999102;28;20378;-67
2023/05/30 09:36:31;;;;;;;0.00;0.00;;;13.90;99.90;;;;;;5012353;28;20139;-67
2023/05/30 09:39:03;;;;;;;0.38;0.38;;;13.90;99.90;;;;;;5011632;28;20366;-68
2023/05/30 09:41:29;;;;;;;0.00;0.00;;;13.90;99.90;;;;;;5004303;28;20045;-67
2023/05/30 09:43:56;;;;;;;0.00;0.00;;;13.90;99.90;;;;;;5023001;28;20076;-66
2023/05/30 09:46:24;;;;;;;0.10;0.10;;;13.90;99.90;;;;;;5011018;28;20188;-67
2023/05/30 09:48:50;;;;;;;0.00;0.00;;;14.00;99.90;;;;;;5003444;28;20076;-68
2023/05/30 09:51:17;;;;;;;0.00;0.00;;;14.10;99.90;;;;;;5020725;28;20043;-67
2023/05/30 09:53:59;;;;;;;0.00;0.00;;;14.10;99.90;;;;;;5007574;28;20045;-68
2023/05/30 09:56:34;;;;;;;0.00;0.00;;;14.10;99.90;;;;;;5002553;28;20033;-67
2023/05/30 09:59:06;;;;;;;0.00;0.00;;;14.10;99.90;;;;;;5005720;28;20077;-67
2023/05/30 10:01:37;;;;;;;0.00;0.00;;;14.20;99.90;;;;;;5010660;28;20042;-67
2023/05/30 10:04:31;;;;;;;0.00;0.00;;;14.10;99.90;;;;;;5003819;28;20524;-67
2023/05/30 10:06:56;;;;;;;0.10;0.10;;;14.10;99.90;;;;;;5000082;28;20453;-67
2023/05/30 10:09:23;;;;;;;0.10;0.10;;;14.00;99.90;;;;;;5035775;28;20050;-67
2023/05/30 10:11:50;;;;;;;0.20;0.20;;;14.00;99.90;;;;;;5000521;28;20050;-67
2023/05/30 10:14:17;;;;;;;0.03;0.03;;;14.10;99.90;;;;;;4995820;28;20136;-66
2023/05/30 10:17:04;;;;;;;0.00;0.00;;;14.00;99.90;;;;;;5002559;28;20407;-67
2023/05/30 10:19:44;;;;;;;0.05;0.05;;;14.20;99.90;;;;;;5010682;28;20041;-67
2023/05/30 10:22:13;;;;;;;0.00;0.00;;;14.20;99.90;;;;;;5005498;28;20038;-67
2023/05/30 10:24:44;;;;;;;0.00;0.00;;;14.40;99.90;;;;;;5002743;28;20433;-67
2023/05/30 10:27:13;;;;;;;0.00;0.00;;;14.50;99.90;;;;;;5010238;28;20481;-67
2023/05/30 10:29:47;;;;;;;0.00;0.00;;;14.60;99.90;;;;;;5000015;28;20062;-67
2023/05/30 10:32:18;;;;;;;0.00;0.00;;;14.70;99.90;;;;;;4996866;28;20053;-67
2023/05/30 10:34:54;;;;;;;0.00;0.00;;;14.70;99.90;;;;;;5009301;28;20477;-67
2023/05/30 10:37:20;;;;;;;0.03;0.03;;;14.70;99.90;;;;;;5008319;28;20390;-67
2023/05/30 10:40:08;;;;;;;0.00;0.00;;;14.70;99.90;;;;;;4998609;28;20045;-67
2023/05/30 10:42:47;;;;;;;0.00;0.00;;;14.80;99.90;;;;;;5006151;28;20053;-67
2023/05/30 10:45:17;;;;;;;0.00;0.00;;;14.90;99.90;;;;;;4993422;28;20475;-67
2023/05/30 10:47:51;;;;;;;0.00;0.00;;;15.00;99.90;;;;;;5009001;28;20046;-67
2023/05/30 10:50:25;;;;;;;0.10;0.10;;;15.00;99.90;;;;;;4994444;28;20045;-67
2023/05/30 10:52:53;;;;;;;0.00;0.00;;;15.00;99.90;;;;;;5000150;28;20205;-67
2023/05/30 10:55:19;;;;;;;0.03;0.03;;;14.90;99.90;;;;;;5003049;28;20034;-67
2023/05/30 10:57:44;;;;;;;0.08;0.08;;;14.80;99.90;;;;;;5002834;28;20052;-67
2023/05/30 11:00:29;;;;;;;0.20;0.20;;;14.80;99.90;;;;;;5000134;28;20378;-67
2023/05/30 11:02:55;;;;;;;0.00;0.00;;;14.90;99.90;;;;;;5005641;28;21104;-67
2023/05/30 11:05:31;;;;;;;0.00;0.00;;;14.90;99.90;;;;;;5038084;28;20100;-67
2023/05/30 11:07:59;;;;;;;1.00;0.20;;;15.00;99.90;;;;;;5001156;28;20045;-66
2023/05/30 11:10:28;;;;;;;0.10;0.10;;;15.10;99.90;;;;;;4998622;28;20404;-67
2023/05/30 11:13:08;;;;;;;0.80;0.65;;;15.20;99.90;;;;;;5005931;28;20449;-67
2023/05/30 11:15:34;;;;;;;0.00;0.00;;;15.30;99.90;;;;;;4997671;28;20504;-67
2023/05/30 11:18:00;;;;;;;0.00;0.00;;;15.40;99.90;;;;;;4997104;28;20038;-68
2023/05/30 11:20:26;;;;;;;0.00;0.00;;;15.40;99.90;;;;;;5006976;28;20056;-67
2023/05/30 11:23:01;;;;;;;0.20;0.20;;;15.40;99.90;;;;;;5009538;28;20109;-67
2023/05/30 11:25:28;;;;;;;0.00;0.00;;;15.50;99.90;;;;;;4997773;28;20108;-68
2023/05/30 11:28:03;;;;;;;0.00;0.00;;;15.50;99.90;;;;;;5005223;28;20119;-68
2023/05/30 11:30:30;;;;;;;0.00;0.00;;;15.50;99.90;;;;;;5006539;28;20107;-67
2023/05/30 11:32:58;;;;;;;0.00;0.00;;;15.40;99.90;;;;;;5009329;28;20038;-68
2023/05/30 11:35:28;;;;;;;0.13;0.13;;;15.60;99.90;;;;;;5030286;28;20046;-67
2023/05/30 11:37:55;;;;;;;0.00;0.00;;;15.80;99.90;;;;;;5004649;28;20052;-68
2023/05/30 11:40:21;;;;;;;0.00;0.00;;;15.90;99.90;;;;;;5006830;28;20489;-68
2023/05/30 11:42:54;;;;;;;0.00;0.00;;;15.80;99.90;;;;;;5040542;28;20148;-67
2023/05/30 11:45:24;;;;;;;0.23;0.23;;;15.60;99.90;;;;;;4995066;28;20077;-68
2023/05/30 11:47:49;;;;;;;0.00;0.00;;;15.60;99.90;;;;;;5001131;28;20042;-68
2023/05/30 11:50:15;;;;;;;0.00;0.00;;;15.60;99.90;;;;;;5018927;28;20240;-68
2023/05/30 11:52:41;;;;;;;0.00;0.00;;;15.70;99.90;;;;;;5000327;28;20505;-69
2023/05/30 11:55:07;;;;;;;0.00;0.00;;;15.60;99.90;;;;;;5002618;28;20042;-69
2023/05/30 11:57:34;;;;;;;0.00;0.00;;;15.70;99.90;;;;;;5007928;28;20448;-69
2023/05/30 12:00:00;;;;;;;0.00;0.00;;;15.60;99.90;;;;;;4997030;28;20150;-69
2023/05/30 12:02:29;;;;;;;0.00;0.00;;;15.60;99.90;;;;;;4999308;28;20129;-68
2023/05/30 12:05:02;;;;;;;0.00;0.00;;;15.60;99.90;;;;;;5007613;28;20069;-68
2023/05/30 12:07:28;;;;;;;0.00;0.00;;;15.60;99.90;;;;;;5006123;28;20049;-68
2023/05/30 12:09:54;;;;;;;0.00;0.00;;;15.60;99.90;;;;;;5006741;28;20041;-70
2023/05/30 12:12:20;;;;;;;0.08;0.08;;;15.60;99.90;;;;;;5002534;28;20113;-70
2023/05/30 12:14:47;;;;;;;0.10;0.10;;;15.60;99.90;;;;;;5007296;28;20077;-68
2023/05/30 12:17:24;;;;;;;0.03;0.03;;;15.60;99.90;;;;;;4999704;28;20050;-68
2023/05/30 12:19:58;;;;;;;0.22;0.22;;;15.70;99.90;;;;;;5010143;28;20038;-68
2023/05/30 12:22:30;;;;;;;0.03;0.03;;;15.90;99.90;;;;;;5001811;28;20038;-68
2023/05/30 12:24:56;;;;;;;0.10;0.08;;;16.50;99.90;;;;;;5008573;28;20964;-69
2023/05/30 12:27:23;;;;;;;0.00;0.00;;;16.40;99.90;;;;;;5002354;28;20097;-68
2023/05/30 12:29:50;;;;;;;0.00;0.00;;;16.50;99.90;;;;;;5008844;28;20108;-69
2023/05/30 12:32:26;;;;;;;0.10;0.10;;;16.40;99.90;;;;;;4999935;28;20452;-68
2023/05/30 12:34:53;;;;;;;0.00;0.00;;;16.40;99.90;;;;;;5006020;28;20519;-68
2023/05/30 12:37:19;;;;;;;0.00;0.00;;;16.40;99.90;;;;;;5024211;28;20046;-69
2023/05/30 12:39:52;;;;;;;0.00;0.00;;;16.50;99.90;;;;;;5005107;28;20375;-68
2023/05/30 12:42:22;;;;;;;0.00;0.00;;;16.50;99.90;;;;;;4995596;28;20042;-69
2023/05/30 12:44:49;;;;;;;0.10;0.10;;;16.30;99.90;;;;;;5002293;28;20070;-70
2023/05/30 12:47:16;;;;;;;0.10;0.10;;;16.30;99.90;;;;;;5007433;28;20045;-68
2023/05/30 12:49:43;;;;;;;0.00;0.00;;;16.20;99.90;;;;;;5011425;28;20512;-69